sensor_id;sensor_type;location;lat;lon;timestamp;P1;durP1;ratioP1;P2;durP2;ratioP2
13311;SDS011;34033;48.672;9.376;2023-04-28T00:02:10;3.27;;;2.57;;
13311;SDS011;34033;48.672;9.376;2023-04-28T00:04:36;4.17;;;2.40;;
13311;SDS011;34033;48.672;9.376;2023-04-28T00:07:01;2.60;;;2.40;;
13311;SDS011;34033;48.672;9.376;2023-04-28T00:09:26;3.23;;;2.37;;
13311;SDS011;34033;48.672;9.376;2023-04-28T00:11:52;4.30;;;2.60;;
13311;SDS011;34033;48.672;9.376;2023-04-28T00:14:17;6.97;;;2.57;;
13311;SDS011;34033;48.672;9.376;2023-04-28T00:16:42;5.43;;;2.20;;
13311;SDS011;34033;48.672;9.376;2023-04-28T00:19:08;4.33;;;2.40;;
13311;SDS011;34033;48.672;9.376;2023-04-28T00:21:33;2.57;;;2.37;;
13311;SDS011;34033;48.672;9.376;2023-04-28T00:23:58;2.27;;;2.07;;
13311;SDS011;34033;48.672;9.376;2023-04-28T00:26:24;3.10;;;2.77;;
13311;SDS011;34033;48.672;9.376;2023-04-28T00:28:49;2.20;;;2.00;;
13311;SDS011;34033;48.672;9.376;2023-04-28T00:31:15;2.63;;;2.20;;
13311;SDS011;34033;48.672;9.376;2023-04-28T00:33:40;3.97;;;2.47;;
13311;SDS011;34033;48.672;9.376;2023-04-28T00:36:07;3.87;;;2.40;;
13311;SDS011;34033;48.672;9.376;2023-04-28T00:38:33;2.27;;;2.10;;
13311;SDS011;34033;48.672;9.376;2023-04-28T00:40:58;2.40;;;2.20;;
13311;SDS011;34033;48.672;9.376;2023-04-28T00:43:24;3.80;;;2.30;;
13311;SDS011;34033;48.672;9.376;2023-04-28T00:45:49;3.00;;;2.63;;
13311;SDS011;34033;48.672;9.376;2023-04-28T00:48:16;5.20;;;2.30;;
13311;SDS011;34033;48.672;9.376;2023-04-28T00:50:42;2.43;;;2.30;;
13311;SDS011;34033;48.672;9.376;2023-04-28T00:53:09;3.47;;;2.30;;
13311;SDS011;34033;48.672;9.376;2023-04-28T00:55:35;2.97;;;2.30;;
13311;SDS011;34033;48.672;9.376;2023-04-28T00:58:01;2.50;;;2.30;;
13311;SDS011;34033;48.672;9.376;2023-04-28T01:00:27;3.10;;;2.57;;
13311;SDS011;34033;48.672;9.376;2023-04-28T01:02:52;2.33;;;2.13;;
13311;SDS011;34033;48.672;9.376;2023-04-28T01:05:19;2.60;;;2.40;;
13311;SDS011;34033;48.672;9.376;2023-04-28T01:07:44;5.30;;;2.27;;
13311;SDS011;34033;48.672;9.376;2023-04-28T01:10:10;2.70;;;2.50;;
13311;SDS011;34033;48.672;9.376;2023-04-28T01:12:35;2.43;;;2.23;;
13311;SDS011;34033;48.672;9.376;2023-04-28T01:15:00;2.70;;;2.43;;
13311;SDS011;34033;48.672;9.376;2023-04-28T01:17:26;2.63;;;2.30;;
13311;SDS011;34033;48.672;9.376;2023-04-28T01:19:51;4.77;;;2.40;;
13311;SDS011;34033;48.672;9.376;2023-04-28T01:22:17;3.03;;;2.50;;
13311;SDS011;34033;48.672;9.376;2023-04-28T01:24:42;3.17;;;2.40;;
13311;SDS011;34033;48.672;9.376;2023-04-28T01:27:08;4.03;;;3.10;;
13311;SDS011;34033;48.672;9.376;2023-04-28T01:29:33;3.33;;;2.50;;
13311;SDS011;34033;48.672;9.376;2023-04-28T01:31:59;2.77;;;2.57;;
13311;SDS011;34033;48.672;9.376;2023-04-28T01:34:24;3.40;;;2.50;;
13311;SDS011;34033;48.672;9.376;2023-04-28T01:36:50;3.50;;;2.70;;
13311;SDS011;34033;48.672;9.376;2023-04-28T01:39:15;2.87;;;2.40;;
13311;SDS011;34033;48.672;9.376;2023-04-28T01:41:41;3.40;;;2.10;;
13311;SDS011;34033;48.672;9.376;2023-04-28T01:44:06;4.60;;;2.40;;
13311;SDS011;34033;48.672;9.376;2023-04-28T01:46:32;2.73;;;2.20;;
13311;SDS011;34033;48.672;9.376;2023-04-28T01:48:58;3.03;;;2.30;;
13311;SDS011;34033;48.672;9.376;2023-04-28T01:51:24;4.70;;;2.50;;
13311;SDS011;34033;48.672;9.376;2023-04-28T01:53:51;4.60;;;2.23;;
13311;SDS011;34033;48.672;9.376;2023-04-28T01:56:16;2.80;;;2.50;;
13311;SDS011;34033;48.672;9.376;2023-04-28T01:58:53;3.00;;;2.43;;
13311;SDS011;34033;48.672;9.376;2023-04-28T02:01:19;2.50;;;2.30;;
13311;SDS011;34033;48.672;9.376;2023-04-28T02:03:44;2.47;;;2.00;;
13311;SDS011;34033;48.672;9.376;2023-04-28T02:06:09;3.47;;;2.70;;
13311;SDS011;34033;48.672;9.376;2023-04-28T02:08:35;3.57;;;2.60;;
13311;SDS011;34033;48.672;9.376;2023-04-28T02:11:00;2.33;;;2.13;;
13311;SDS011;34033;48.672;9.376;2023-04-28T02:13:27;3.00;;;2.50;;
13311;SDS011;34033;48.672;9.376;2023-04-28T02:15:53;2.57;;;2.30;;
13311;SDS011;34033;48.672;9.376;2023-04-28T02:18:18;2.47;;;2.20;;
13311;SDS011;34033;48.672;9.376;2023-04-28T02:20:43;2.90;;;2.67;;
13311;SDS011;34033;48.672;9.376;2023-04-28T02:23:09;2.50;;;2.30;;
13311;SDS011;34033;48.672;9.376;2023-04-28T02:25:35;4.53;;;2.77;;
13311;SDS011;34033;48.672;9.376;2023-04-28T02:28:01;2.50;;;2.30;;
13311;SDS011;34033;48.672;9.376;2023-04-28T02:30:26;2.90;;;2.70;;
13311;SDS011;34033;48.672;9.376;2023-04-28T02:32:52;2.27;;;2.10;;
13311;SDS011;34033;48.672;9.376;2023-04-28T02:35:17;2.97;;;2.60;;
13311;SDS011;34033;48.672;9.376;2023-04-28T02:37:43;2.40;;;2.20;;
13311;SDS011;34033;48.672;9.376;2023-04-28T02:40:08;2.80;;;2.53;;
13311;SDS011;34033;48.672;9.376;2023-04-28T02:42:34;3.50;;;2.20;;
13311;SDS011;34033;48.672;9.376;2023-04-28T02:44:59;3.37;;;2.40;;
13311;SDS011;34033;48.672;9.376;2023-04-28T02:47:24;2.70;;;2.50;;
13311;SDS011;34033;48.672;9.376;2023-04-28T02:49:50;2.93;;;2.50;;
13311;SDS011;34033;48.672;9.376;2023-04-28T02:52:15;5.90;;;3.03;;
13311;SDS011;34033;48.672;9.376;2023-04-28T02:54:40;3.87;;;2.57;;
13311;SDS011;34033;48.672;9.376;2023-04-28T02:57:06;4.73;;;2.70;;
13311;SDS011;34033;48.672;9.376;2023-04-28T02:59:31;5.27;;;2.40;;
13311;SDS011;34033;48.672;9.376;2023-04-28T03:01:56;7.60;;;3.37;;
13311;SDS011;34033;48.672;9.376;2023-04-28T03:04:22;3.87;;;2.77;;
13311;SDS011;34033;48.672;9.376;2023-04-28T03:06:47;6.83;;;2.90;;
13311;SDS011;34033;48.672;9.376;2023-04-28T03:09:12;2.90;;;2.70;;
13311;SDS011;34033;48.672;9.376;2023-04-28T03:11:38;7.67;;;2.80;;
13311;SDS011;34033;48.672;9.376;2023-04-28T03:14:04;2.50;;;2.30;;
13311;SDS011;34033;48.672;9.376;2023-04-28T03:16:29;2.77;;;2.57;;
13311;SDS011;34033;48.672;9.376;2023-04-28T03:18:54;3.50;;;2.70;;
13311;SDS011;34033;48.672;9.376;2023-04-28T03:21:20;3.00;;;2.63;;
13311;SDS011;34033;48.672;9.376;2023-04-28T03:23:45;2.77;;;2.57;;
13311;SDS011;34033;48.672;9.376;2023-04-28T03:26:10;3.13;;;2.83;;
13311;SDS011;34033;48.672;9.376;2023-04-28T03:28:36;2.90;;;2.70;;
13311;SDS011;34033;48.672;9.376;2023-04-28T03:31:01;2.40;;;2.30;;
13311;SDS011;34033;48.672;9.376;2023-04-28T03:33:27;3.03;;;2.73;;
13311;SDS011;34033;48.672;9.376;2023-04-28T03:35:53;3.70;;;2.50;;
13311;SDS011;34033;48.672;9.376;2023-04-28T03:38:18;3.37;;;2.93;;
13311;SDS011;34033;48.672;9.376;2023-04-28T03:40:44;6.00;;;2.50;;
13311;SDS011;34033;48.672;9.376;2023-04-28T03:43:09;3.20;;;2.87;;
13311;SDS011;34033;48.672;9.376;2023-04-28T03:45:35;2.93;;;2.73;;
13311;SDS011;34033;48.672;9.376;2023-04-28T03:48:00;3.27;;;2.93;;
13311;SDS011;34033;48.672;9.376;2023-04-28T03:50:26;3.67;;;2.83;;
13311;SDS011;34033;48.672;9.376;2023-04-28T03:52:51;5.57;;;2.93;;
13311;SDS011;34033;48.672;9.376;2023-04-28T03:55:16;4.83;;;3.40;;
13311;SDS011;34033;48.672;9.376;2023-04-28T03:57:41;4.23;;;3.10;;
13311;SDS011;34033;48.672;9.376;2023-04-28T04:00:07;4.50;;;3.40;;
13311;SDS011;34033;48.672;9.376;2023-04-28T04:02:34;2.70;;;2.50;;
13311;SDS011;34033;48.672;9.376;2023-04-28T04:04:59;2.80;;;2.60;;
13311;SDS011;34033;48.672;9.376;2023-04-28T04:07:24;3.40;;;2.83;;
13311;SDS011;34033;48.672;9.376;2023-04-28T04:09:50;3.17;;;2.90;;
13311;SDS011;34033;48.672;9.376;2023-04-28T04:12:15;3.30;;;2.87;;
13311;SDS011;34033;48.672;9.376;2023-04-28T04:14:41;3.30;;;2.57;;
13311;SDS011;34033;48.672;9.376;2023-04-28T04:17:07;3.10;;;2.87;;
13311;SDS011;34033;48.672;9.376;2023-04-28T04:19:33;3.30;;;3.00;;
13311;SDS011;34033;48.672;9.376;2023-04-28T04:21:58;2.90;;;2.70;;
13311;SDS011;34033;48.672;9.376;2023-04-28T04:24:23;7.50;;;2.90;;
13311;SDS011;34033;48.672;9.376;2023-04-28T04:26:49;3.27;;;3.07;;
13311;SDS011;34033;48.672;9.376;2023-04-28T04:29:14;2.53;;;2.33;;
13311;SDS011;34033;48.672;9.376;2023-04-28T04:31:39;3.67;;;2.80;;
13311;SDS011;34033;48.672;9.376;2023-04-28T04:34:05;3.07;;;2.77;;
13311;SDS011;34033;48.672;9.376;2023-04-28T04:36:30;5.50;;;3.30;;
13311;SDS011;34033;48.672;9.376;2023-04-28T04:38:56;4.33;;;3.00;;
13311;SDS011;34033;48.672;9.376;2023-04-28T04:41:22;4.00;;;2.60;;
13311;SDS011;34033;48.672;9.376;2023-04-28T04:43:47;3.13;;;2.93;;
13311;SDS011;34033;48.672;9.376;2023-04-28T04:46:13;2.80;;;2.60;;
13311;SDS011;34033;48.672;9.376;2023-04-28T04:48:38;3.00;;;2.70;;
13311;SDS011;34033;48.672;9.376;2023-04-28T04:51:04;3.23;;;2.93;;
13311;SDS011;34033;48.672;9.376;2023-04-28T04:53:29;3.90;;;2.87;;
13311;SDS011;34033;48.672;9.376;2023-04-28T04:55:55;4.57;;;3.10;;
13311;SDS011;34033;48.672;9.376;2023-04-28T04:58:20;4.37;;;3.13;;
13311;SDS011;34033;48.672;9.376;2023-04-28T05:00:46;7.00;;;4.00;;
13311;SDS011;34033;48.672;9.376;2023-04-28T05:03:11;7.13;;;3.63;;
13311;SDS011;34033;48.672;9.376;2023-04-28T05:05:37;5.87;;;3.80;;
13311;SDS011;34033;48.672;9.376;2023-04-28T05:08:02;4.27;;;3.07;;
13311;SDS011;34033;48.672;9.376;2023-04-28T05:10:27;5.43;;;3.23;;
13311;SDS011;34033;48.672;9.376;2023-04-28T05:12:53;7.97;;;3.47;;
13311;SDS011;34033;48.672;9.376;2023-04-28T05:15:18;3.47;;;3.10;;
13311;SDS011;34033;48.672;9.376;2023-04-28T05:17:44;4.53;;;3.10;;
13311;SDS011;34033;48.672;9.376;2023-04-28T05:20:09;5.43;;;2.87;;
13311;SDS011;34033;48.672;9.376;2023-04-28T05:22:35;4.57;;;2.90;;
13311;SDS011;34033;48.672;9.376;2023-04-28T05:25:00;3.50;;;2.77;;
13311;SDS011;34033;48.672;9.376;2023-04-28T05:27:25;3.97;;;3.17;;
13311;SDS011;34033;48.672;9.376;2023-04-28T05:29:51;5.20;;;3.33;;
13311;SDS011;34033;48.672;9.376;2023-04-28T05:32:16;4.20;;;2.93;;
13311;SDS011;34033;48.672;9.376;2023-04-28T05:34:41;3.43;;;3.10;;
13311;SDS011;34033;48.672;9.376;2023-04-28T05:37:07;3.23;;;2.90;;
13311;SDS011;34033;48.672;9.376;2023-04-28T05:39:32;3.27;;;2.97;;
13311;SDS011;34033;48.672;9.376;2023-04-28T05:41:57;4.70;;;3.03;;
13311;SDS011;34033;48.672;9.376;2023-04-28T05:44:23;3.23;;;2.93;;
13311;SDS011;34033;48.672;9.376;2023-04-28T05:46:48;4.20;;;3.50;;
13311;SDS011;34033;48.672;9.376;2023-04-28T05:49:14;3.33;;;3.00;;
13311;SDS011;34033;48.672;9.376;2023-04-28T05:51:39;3.50;;;3.20;;
13311;SDS011;34033;48.672;9.376;2023-04-28T05:54:05;4.00;;;3.33;;
13311;SDS011;34033;48.672;9.376;2023-04-28T05:56:31;5.90;;;3.43;;
13311;SDS011;34033;48.672;9.376;2023-04-28T05:58:56;3.50;;;3.13;;
13311;SDS011;34033;48.672;9.376;2023-04-28T06:01:22;3.63;;;3.20;;
13311;SDS011;34033;48.672;9.376;2023-04-28T06:03:47;3.40;;;3.10;;
13311;SDS011;34033;48.672;9.376;2023-04-28T06:06:13;5.27;;;3.10;;
13311;SDS011;34033;48.672;9.376;2023-04-28T06:08:38;4.20;;;3.10;;
13311;SDS011;34033;48.672;9.376;2023-04-28T06:11:04;3.20;;;2.87;;
13311;SDS011;34033;48.672;9.376;2023-04-28T06:13:29;3.33;;;2.80;;
13311;SDS011;34033;48.672;9.376;2023-04-28T06:15:55;3.03;;;2.73;;
13311;SDS011;34033;48.672;9.376;2023-04-28T06:18:20;4.50;;;3.20;;
13311;SDS011;34033;48.672;9.376;2023-04-28T06:20:47;3.37;;;3.07;;
13311;SDS011;34033;48.672;9.376;2023-04-28T06:23:12;3.17;;;2.97;;
13311;SDS011;34033;48.672;9.376;2023-04-28T06:25:38;7.00;;;3.37;;
13311;SDS011;34033;48.672;9.376;2023-04-28T06:28:03;4.00;;;3.20;;
13311;SDS011;34033;48.672;9.376;2023-04-28T06:30:30;4.37;;;3.13;;
13311;SDS011;34033;48.672;9.376;2023-04-28T06:32:55;4.13;;;2.87;;
13311;SDS011;34033;48.672;9.376;2023-04-28T06:35:21;2.73;;;2.53;;
13311;SDS011;34033;48.672;9.376;2023-04-28T06:37:47;3.27;;;2.97;;
13311;SDS011;34033;48.672;9.376;2023-04-28T06:40:12;4.07;;;2.73;;
13311;SDS011;34033;48.672;9.376;2023-04-28T06:42:38;2.73;;;2.53;;
13311;SDS011;34033;48.672;9.376;2023-04-28T06:45:03;3.07;;;1.80;;
13311;SDS011;34033;48.672;9.376;2023-04-28T06:47:29;1.80;;;1.70;;
13311;SDS011;34033;48.672;9.376;2023-04-28T06:49:54;2.87;;;2.30;;
13311;SDS011;34033;48.672;9.376;2023-04-28T06:52:19;2.53;;;2.33;;
13311;SDS011;34033;48.672;9.376;2023-04-28T06:54:48;2.47;;;2.20;;
13311;SDS011;34033;48.672;9.376;2023-04-28T06:57:14;3.45;;;2.97;;
13311;SDS011;34033;48.672;9.376;2023-04-28T06:59:40;3.97;;;3.10;;
13311;SDS011;34033;48.672;9.376;2023-04-28T07:02:08;3.17;;;2.87;;
13311;SDS011;34033;48.672;9.376;2023-04-28T07:04:33;5.03;;;3.10;;
13311;SDS011;34033;48.672;9.376;2023-04-28T07:06:58;3.60;;;3.30;;
13311;SDS011;34033;48.672;9.376;2023-04-28T07:09:24;6.53;;;3.10;;
13311;SDS011;34033;48.672;9.376;2023-04-28T07:11:49;5.03;;;3.27;;
13311;SDS011;34033;48.672;9.376;2023-04-28T07:14:15;5.57;;;3.80;;
13311;SDS011;34033;48.672;9.376;2023-04-28T07:16:40;6.20;;;3.83;;
13311;SDS011;34033;48.672;9.376;2023-04-28T07:19:06;5.13;;;3.43;;
13311;SDS011;34033;48.672;9.376;2023-04-28T07:21:31;4.30;;;3.50;;
13311;SDS011;34033;48.672;9.376;2023-04-28T07:23:56;6.70;;;3.93;;
13311;SDS011;34033;48.672;9.376;2023-04-28T07:26:22;5.73;;;3.87;;
13311;SDS011;34033;48.672;9.376;2023-04-28T07:28:48;3.70;;;2.97;;
13311;SDS011;34033;48.672;9.376;2023-04-28T07:31:13;5.20;;;3.10;;
13311;SDS011;34033;48.672;9.376;2023-04-28T07:33:38;7.00;;;3.93;;
13311;SDS011;34033;48.672;9.376;2023-04-28T07:36:04;3.40;;;3.10;;
13311;SDS011;34033;48.672;9.376;2023-04-28T07:38:29;6.10;;;3.30;;
13311;SDS011;34033;48.672;9.376;2023-04-28T07:40:55;3.30;;;3.00;;
13311;SDS011;34033;48.672;9.376;2023-04-28T07:43:21;4.00;;;3.03;;
13311;SDS011;34033;48.672;9.376;2023-04-28T07:45:46;4.50;;;3.23;;
13311;SDS011;34033;48.672;9.376;2023-04-28T07:48:13;4.10;;;3.70;;
13311;SDS011;34033;48.672;9.376;2023-04-28T07:50:39;4.47;;;3.63;;
13311;SDS011;34033;48.672;9.376;2023-04-28T07:53:05;4.07;;;3.53;;
13311;SDS011;34033;48.672;9.376;2023-04-28T07:55:30;4.90;;;3.33;;
13311;SDS011;34033;48.672;9.376;2023-04-28T07:57:55;4.97;;;3.37;;
13311;SDS011;34033;48.672;9.376;2023-04-28T08:00:22;5.07;;;3.63;;
13311;SDS011;34033;48.672;9.376;2023-04-28T08:02:48;4.93;;;3.90;;
13311;SDS011;34033;48.672;9.376;2023-04-28T08:05:14;2.97;;;2.70;;
13311;SDS011;34033;48.672;9.376;2023-04-28T08:07:40;5.67;;;4.17;;
13311;SDS011;34033;48.672;9.376;2023-04-28T08:10:07;6.07;;;3.87;;
13311;SDS011;34033;48.672;9.376;2023-04-28T08:12:36;5.10;;;3.90;;
13311;SDS011;34033;48.672;9.376;2023-04-28T08:15:01;7.47;;;4.30;;
13311;SDS011;34033;48.672;9.376;2023-04-28T08:17:27;5.57;;;4.10;;
13311;SDS011;34033;48.672;9.376;2023-04-28T08:19:53;3.60;;;2.80;;
13311;SDS011;34033;48.672;9.376;2023-04-28T08:22:18;5.97;;;4.13;;
13311;SDS011;34033;48.672;9.376;2023-04-28T08:24:44;3.70;;;3.33;;
13311;SDS011;34033;48.672;9.376;2023-04-28T08:27:09;7.50;;;4.33;;
13311;SDS011;34033;48.672;9.376;2023-04-28T08:29:34;5.40;;;4.43;;
13311;SDS011;34033;48.672;9.376;2023-04-28T08:32:00;5.10;;;4.13;;
13311;SDS011;34033;48.672;9.376;2023-04-28T08:34:26;5.17;;;4.13;;
13311;SDS011;34033;48.672;9.376;2023-04-28T08:36:52;9.03;;;4.50;;
13311;SDS011;34033;48.672;9.376;2023-04-28T08:39:17;6.97;;;4.27;;
13311;SDS011;34033;48.672;9.376;2023-04-28T08:41:44;5.80;;;3.73;;
13311;SDS011;34033;48.672;9.376;2023-04-28T08:44:10;4.40;;;4.00;;
13311;SDS011;34033;48.672;9.376;2023-04-28T08:46:42;4.73;;;3.07;;
13311;SDS011;34033;48.672;9.376;2023-04-28T08:49:12;4.00;;;3.60;;
13311;SDS011;34033;48.672;9.376;2023-04-28T08:51:44;4.23;;;3.63;;
13311;SDS011;34033;48.672;9.376;2023-04-28T08:54:12;8.67;;;3.87;;
13311;SDS011;34033;48.672;9.376;2023-04-28T08:56:39;5.77;;;3.50;;
13311;SDS011;34033;48.672;9.376;2023-04-28T08:59:09;6.10;;;4.00;;
13311;SDS011;34033;48.672;9.376;2023-04-28T09:01:34;3.90;;;3.50;;
13311;SDS011;34033;48.672;9.376;2023-04-28T09:04:00;5.80;;;3.63;;
13311;SDS011;34033;48.672;9.376;2023-04-28T09:06:30;5.00;;;3.73;;
13311;SDS011;34033;48.672;9.376;2023-04-28T09:09:16;4.60;;;3.93;;
13311;SDS011;34033;48.672;9.376;2023-04-28T09:14:23;4.87;;;3.87;;
13311;SDS011;34033;48.672;9.376;2023-04-28T09:16:50;4.10;;;3.70;;
13311;SDS011;34033;48.672;9.376;2023-04-28T09:19:16;5.03;;;4.00;;
13311;SDS011;34033;48.672;9.376;2023-04-28T09:21:54;9.33;;;3.60;;
13311;SDS011;34033;48.672;9.376;2023-04-28T09:27:24;5.80;;;3.43;;
13311;SDS011;34033;48.672;9.376;2023-04-28T09:29:52;5.77;;;4.17;;
13311;SDS011;34033;48.672;9.376;2023-04-28T09:32:21;4.77;;;3.97;;
13311;SDS011;34033;48.672;9.376;2023-04-28T09:34:51;4.13;;;3.33;;
13311;SDS011;34033;48.672;9.376;2023-04-28T09:37:21;6.57;;;3.50;;
13311;SDS011;34033;48.672;9.376;2023-04-28T09:39:51;3.43;;;3.13;;
13311;SDS011;34033;48.672;9.376;2023-04-28T09:47:32;3.93;;;3.17;;
13311;SDS011;34033;48.672;9.376;2023-04-28T09:50:00;4.00;;;3.27;;
13311;SDS011;34033;48.672;9.376;2023-04-28T09:52:27;3.43;;;3.13;;
13311;SDS011;34033;48.672;9.376;2023-04-28T09:54:54;3.47;;;3.07;;
13311;SDS011;34033;48.672;9.376;2023-04-28T09:57:21;3.00;;;2.70;;
13311;SDS011;34033;48.672;9.376;2023-04-28T09:59:50;3.13;;;2.60;;
13311;SDS011;34033;48.672;9.376;2023-04-28T10:02:17;4.37;;;2.60;;
13311;SDS011;34033;48.672;9.376;2023-04-28T10:04:45;4.13;;;2.73;;
13311;SDS011;34033;48.672;9.376;2023-04-28T10:07:15;4.67;;;2.67;;
13311;SDS011;34033;48.672;9.376;2023-04-28T10:09:44;3.77;;;2.50;;
13311;SDS011;34033;48.672;9.376;2023-04-28T10:12:17;3.17;;;2.47;;
13311;SDS011;34033;48.672;9.376;2023-04-28T10:14:47;2.37;;;2.17;;
13311;SDS011;34033;48.672;9.376;2023-04-28T10:17:20;1.90;;;1.80;;
13311;SDS011;34033;48.672;9.376;2023-04-28T10:19:46;1.80;;;1.70;;
13311;SDS011;34033;48.672;9.376;2023-04-28T10:27:36;1.53;;;1.43;;
13311;SDS011;34033;48.672;9.376;2023-04-28T10:30:13;1.50;;;1.40;;
13311;SDS011;34033;48.672;9.376;2023-04-28T10:32:40;1.80;;;1.60;;
13311;SDS011;34033;48.672;9.376;2023-04-28T10:40:36;1.43;;;1.33;;
13311;SDS011;34033;48.672;9.376;2023-04-28T10:43:03;1.30;;;1.27;;
13311;SDS011;34033;48.672;9.376;2023-04-28T10:48:12;1.40;;;1.30;;
13311;SDS011;34033;48.672;9.376;2023-04-28T10:50:45;1.20;;;1.20;;
13311;SDS011;34033;48.672;9.376;2023-04-28T10:56:08;1.30;;;1.20;;
13311;SDS011;34033;48.672;9.376;2023-04-28T10:58:33;1.30;;;1.20;;
13311;SDS011;34033;48.672;9.376;2023-04-28T11:03:49;3.13;;;1.17;;
13311;SDS011;34033;48.672;9.376;2023-04-28T11:11:38;1.20;;;1.10;;
13311;SDS011;34033;48.672;9.376;2023-04-28T11:16:53;1.00;;;1.00;;
13311;SDS011;34033;48.672;9.376;2023-04-28T11:19:20;0.80;;;0.80;;
13311;SDS011;34033;48.672;9.376;2023-04-28T11:21:48;1.00;;;0.97;;
13311;SDS011;34033;48.672;9.376;2023-04-28T11:24:15;0.80;;;0.80;;
13311;SDS011;34033;48.672;9.376;2023-04-28T11:26:41;0.70;;;0.70;;
13311;SDS011;34033;48.672;9.376;2023-04-28T11:29:09;1.03;;;1.00;;
13311;SDS011;34033;48.672;9.376;2023-04-28T11:31:35;1.37;;;1.10;;
13311;SDS011;34033;48.672;9.376;2023-04-28T11:34:11;0.90;;;0.90;;
13311;SDS011;34033;48.672;9.376;2023-04-28T11:36:38;0.80;;;0.80;;
13311;SDS011;34033;48.672;9.376;2023-04-28T11:39:08;0.70;;;0.70;;
13311;SDS011;34033;48.672;9.376;2023-04-28T11:46:46;0.73;;;0.73;;
13311;SDS011;34033;48.672;9.376;2023-04-28T11:49:15;0.70;;;0.70;;
13311;SDS011;34033;48.672;9.376;2023-04-28T11:51:42;0.67;;;0.67;;
13311;SDS011;34033;48.672;9.376;2023-04-28T11:54:09;0.70;;;0.70;;
13311;SDS011;34033;48.672;9.376;2023-04-28T11:56:39;0.93;;;0.80;;
13311;SDS011;34033;48.672;9.376;2023-04-28T12:01:43;0.63;;;0.63;;
13311;SDS011;34033;48.672;9.376;2023-04-28T12:04:12;0.70;;;0.70;;
13311;SDS011;34033;48.672;9.376;2023-04-28T12:06:39;0.50;;;0.50;;
13311;SDS011;34033;48.672;9.376;2023-04-28T12:09:14;0.50;;;0.50;;
13311;SDS011;34033;48.672;9.376;2023-04-28T12:11:51;0.73;;;0.73;;
13311;SDS011;34033;48.672;9.376;2023-04-28T12:14:21;0.97;;;0.70;;
13311;SDS011;34033;48.672;9.376;2023-04-28T12:16:46;0.60;;;0.60;;
13311;SDS011;34033;48.672;9.376;2023-04-28T12:19:13;0.70;;;0.70;;
13311;SDS011;34033;48.672;9.376;2023-04-28T12:21:40;0.77;;;0.77;;
13311;SDS011;34033;48.672;9.376;2023-04-28T12:24:13;1.00;;;0.90;;
13311;SDS011;34033;48.672;9.376;2023-04-28T12:26:39;0.80;;;0.80;;
13311;SDS011;34033;48.672;9.376;2023-04-28T12:29:05;0.90;;;0.90;;
13311;SDS011;34033;48.672;9.376;2023-04-28T12:31:30;1.90;;;0.83;;
13311;SDS011;34033;48.672;9.376;2023-04-28T12:33:56;1.00;;;1.00;;
13311;SDS011;34033;48.672;9.376;2023-04-28T12:36:21;0.80;;;0.80;;
13311;SDS011;34033;48.672;9.376;2023-04-28T12:38:47;0.77;;;0.77;;
13311;SDS011;34033;48.672;9.376;2023-04-28T12:41:13;0.60;;;0.60;;
13311;SDS011;34033;48.672;9.376;2023-04-28T12:43:39;0.73;;;0.73;;
13311;SDS011;34033;48.672;9.376;2023-04-28T12:46:05;0.70;;;0.70;;
13311;SDS011;34033;48.672;9.376;2023-04-28T12:48:32;0.90;;;0.90;;
13311;SDS011;34033;48.672;9.376;2023-04-28T12:50:58;0.70;;;0.70;;
13311;SDS011;34033;48.672;9.376;2023-04-28T12:53:24;0.50;;;0.50;;
13311;SDS011;34033;48.672;9.376;2023-04-28T12:55:49;0.60;;;0.60;;
13311;SDS011;34033;48.672;9.376;2023-04-28T12:58:15;0.87;;;0.87;;
13311;SDS011;34033;48.672;9.376;2023-04-28T13:00:41;0.70;;;0.70;;
13311;SDS011;34033;48.672;9.376;2023-04-28T13:03:07;0.50;;;0.50;;
13311;SDS011;34033;48.672;9.376;2023-04-28T13:05:32;1.13;;;0.77;;
13311;SDS011;34033;48.672;9.376;2023-04-28T13:07:59;0.77;;;0.60;;
13311;SDS011;34033;48.672;9.376;2023-04-28T13:10:24;0.80;;;0.73;;
13311;SDS011;34033;48.672;9.376;2023-04-28T13:12:50;0.67;;;0.67;;
13311;SDS011;34033;48.672;9.376;2023-04-28T13:15:16;1.10;;;0.80;;
13311;SDS011;34033;48.672;9.376;2023-04-28T13:17:41;0.87;;;0.80;;
13311;SDS011;34033;48.672;9.376;2023-04-28T13:20:07;0.70;;;0.70;;
13311;SDS011;34033;48.672;9.376;2023-04-28T13:22:32;1.00;;;0.90;;
13311;SDS011;34033;48.672;9.376;2023-04-28T13:24:58;1.53;;;1.43;;
13311;SDS011;34033;48.672;9.376;2023-04-28T13:27:23;0.70;;;0.70;;
13311;SDS011;34033;48.672;9.376;2023-04-28T13:29:49;0.30;;;0.30;;
13311;SDS011;34033;48.672;9.376;2023-04-28T13:32:14;0.50;;;0.50;;
13311;SDS011;34033;48.672;9.376;2023-04-28T13:34:40;0.50;;;0.50;;
13311;SDS011;34033;48.672;9.376;2023-04-28T13:37:05;0.50;;;0.50;;
13311;SDS011;34033;48.672;9.376;2023-04-28T13:39:31;1.30;;;0.57;;
13311;SDS011;34033;48.672;9.376;2023-04-28T13:41:57;0.50;;;0.50;;
13311;SDS011;34033;48.672;9.376;2023-04-28T13:44:22;0.40;;;0.40;;
13311;SDS011;34033;48.672;9.376;2023-04-28T13:46:48;1.43;;;0.50;;
13311;SDS011;34033;48.672;9.376;2023-04-28T13:49:13;0.50;;;0.50;;
13311;SDS011;34033;48.672;9.376;2023-04-28T13:51:39;0.53;;;0.53;;
13311;SDS011;34033;48.672;9.376;2023-04-28T13:54:04;0.50;;;0.50;;
13311;SDS011;34033;48.672;9.376;2023-04-28T13:56:33;0.70;;;0.70;;
13311;SDS011;34033;48.672;9.376;2023-04-28T13:59:00;0.57;;;0.50;;
13311;SDS011;34033;48.672;9.376;2023-04-28T14:01:26;0.50;;;0.50;;
13311;SDS011;34033;48.672;9.376;2023-04-28T14:03:51;0.30;;;0.30;;
13311;SDS011;34033;48.672;9.376;2023-04-28T14:06:16;0.50;;;0.50;;
13311;SDS011;34033;48.672;9.376;2023-04-28T14:08:42;3.13;;;0.80;;
13311;SDS011;34033;48.672;9.376;2023-04-28T14:11:07;0.53;;;0.43;;
13311;SDS011;34033;48.672;9.376;2023-04-28T14:13:33;0.70;;;0.70;;
13311;SDS011;34033;48.672;9.376;2023-04-28T14:15:58;1.93;;;1.20;;
13311;SDS011;34033;48.672;9.376;2023-04-28T14:18:24;0.93;;;0.80;;
13311;SDS011;34033;48.672;9.376;2023-04-28T14:20:50;0.60;;;0.60;;
13311;SDS011;34033;48.672;9.376;2023-04-28T14:23:15;1.13;;;0.50;;
13311;SDS011;34033;48.672;9.376;2023-04-28T14:25:41;0.50;;;0.40;;
13311;SDS011;34033;48.672;9.376;2023-04-28T14:28:06;5.40;;;0.50;;
13311;SDS011;34033;48.672;9.376;2023-04-28T14:30:32;0.40;;;0.40;;
13311;SDS011;34033;48.672;9.376;2023-04-28T14:32:57;1.50;;;0.60;;
13311;SDS011;34033;48.672;9.376;2023-04-28T14:35:23;2.10;;;0.40;;
13311;SDS011;34033;48.672;9.376;2023-04-28T14:37:48;0.50;;;0.50;;
13311;SDS011;34033;48.672;9.376;2023-04-28T14:40:15;0.30;;;0.30;;
13311;SDS011;34033;48.672;9.376;2023-04-28T14:42:41;0.57;;;0.30;;
13311;SDS011;34033;48.672;9.376;2023-04-28T14:45:07;1.60;;;0.70;;
13311;SDS011;34033;48.672;9.376;2023-04-28T14:47:34;0.60;;;0.60;;
13311;SDS011;34033;48.672;9.376;2023-04-28T14:50:01;1.53;;;0.67;;
13311;SDS011;34033;48.672;9.376;2023-04-28T14:52:27;1.37;;;0.90;;
13311;SDS011;34033;48.672;9.376;2023-04-28T14:54:54;0.73;;;0.73;;
13311;SDS011;34033;48.672;9.376;2023-04-28T14:57:20;0.73;;;0.73;;
13311;SDS011;34033;48.672;9.376;2023-04-28T14:59:46;0.60;;;0.50;;
13311;SDS011;34033;48.672;9.376;2023-04-28T15:02:11;0.50;;;0.50;;
13311;SDS011;34033;48.672;9.376;2023-04-28T15:04:40;0.60;;;0.60;;
13311;SDS011;34033;48.672;9.376;2023-04-28T15:07:06;0.87;;;0.60;;
13311;SDS011;34033;48.672;9.376;2023-04-28T15:09:33;0.60;;;0.60;;
13311;SDS011;34033;48.672;9.376;2023-04-28T15:11:58;0.63;;;0.60;;
13311;SDS011;34033;48.672;9.376;2023-04-28T15:14:24;0.97;;;0.50;;
13311;SDS011;34033;48.672;9.376;2023-04-28T15:16:49;1.47;;;1.37;;
13311;SDS011;34033;48.672;9.376;2023-04-28T15:19:15;0.60;;;0.60;;
13311;SDS011;34033;48.672;9.376;2023-04-28T15:21:40;0.70;;;0.70;;
13311;SDS011;34033;48.672;9.376;2023-04-28T15:24:06;0.50;;;0.50;;
13311;SDS011;34033;48.672;9.376;2023-04-28T15:26:31;0.70;;;0.70;;
13311;SDS011;34033;48.672;9.376;2023-04-28T15:28:57;0.53;;;0.53;;